Time;durP1;ratioP1;P1;durP2;ratioP2;P2;SDS_P1;SDS_P2;PMS_P1;PMS_P2;Temp;Humidity;BMP_temperature;BMP_pressure;BME280_temperature;BME280_humidity;BME280_pressure;Samples;Min_cycle;Max_cycle;Signal;HPM_P1;HPM_P2
2021/03/23 00:00:59;;;;;;;15.15;3.60;;;6.60;99.90;;;;;;4999850;28;20042;-64
2021/03/23 00:03:46;;;;;;;10.02;3.60;;;6.60;99.90;;;;;;4999304;28;20029;-64
2021/03/23 00:06:17;;;;;;;14.98;3.92;;;6.60;99.90;;;;;;4995893;28;20030;-64
2021/03/23 00:08:45;;;;;;;11.88;3.70;;;6.60;99.90;;;;;;4994614;28;20123;-63
2021/03/23 00:11:13;;;;;;;13.50;4.15;;;6.60;99.90;;;;;;4998261;28;20041;-63
2021/03/23 00:13:41;;;;;;;12.20;3.97;;;6.50;99.90;;;;;;4998945;28;20061;-64
2021/03/23 00:16:07;;;;;;;11.13;4.10;;;6.40;99.90;;;;;;4998352;28;20038;-63
2021/03/23 00:18:34;;;;;;;9.98;3.85;;;6.30;99.90;;;;;;4965020;28;20134;-64
2021/03/23 00:20:59;;;;;;;10.23;4.40;;;6.20;99.90;;;;;;4998431;28;20041;-64
2021/03/23 00:23:28;;;;;;;13.05;4.22;;;6.20;99.90;;;;;;4999118;28;20032;-64
2021/03/23 00:25:54;;;;;;;12.15;4.55;;;6.20;99.90;;;;;;4997510;28;20022;-64
2021/03/23 00:28:22;;;;;;;17.35;3.88;;;6.10;99.90;;;;;;4998184;28;20081;-64
2021/03/23 00:30:48;;;;;;;11.88;4.03;;;6.00;99.90;;;;;;4978011;28;20569;-64
2021/03/23 00:33:14;;;;;;;8.93;3.83;;;6.00;99.90;;;;;;4997538;28;20045;-65
2021/03/23 00:35:39;;;;;;;16.80;4.47;;;6.00;99.90;;;;;;4997737;28;20112;-64
2021/03/23 00:38:08;;;;;;;14.40;4.43;;;6.00;99.90;;;;;;4997968;28;20040;-64
2021/03/23 00:40:35;;;;;;;13.82;4.05;;;6.00;99.90;;;;;;4998060;28;20060;-64
2021/03/23 00:43:03;;;;;;;13.00;4.13;;;6.00;99.90;;;;;;4998481;28;20034;-64
2021/03/23 00:45:30;;;;;;;15.35;4.05;;;6.00;99.90;;;;;;4997623;28;20049;-64
2021/03/23 00:47:56;;;;;;;16.40;4.57;;;5.90;99.90;;;;;;4997269;28;20166;-65
2021/03/23 00:50:21;;;;;;;11.52;4.00;;;6.00;99.90;;;;;;4998433;28;20541;-64
2021/03/23 00:52:47;;;;;;;12.25;4.25;;;6.00;99.90;;;;;;4980197;28;20037;-64
2021/03/23 00:55:14;;;;;;;12.27;3.70;;;5.90;99.90;;;;;;4996831;28;20061;-64
2021/03/23 00:57:42;;;;;;;9.43;4.43;;;5.90;99.90;;;;;;4995136;28;20076;-65
2021/03/23 01:00:12;;;;;;;11.80;4.35;;;6.00;99.90;;;;;;4999669;28;20034;-64
2021/03/23 01:02:39;;;;;;;16.65;4.78;;;6.00;99.90;;;;;;5000265;28;20040;-64
2021/03/23 01:05:06;;;;;;;10.82;4.30;;;6.00;99.90;;;;;;4997831;28;20091;-64
2021/03/23 01:07:32;;;;;;;15.40;4.35;;;6.00;99.90;;;;;;4998435;28;20038;-63
2021/03/23 01:09:57;;;;;;;11.70;4.38;;;5.90;99.90;;;;;;4980039;28;20033;-64
2021/03/23 01:12:23;;;;;;;15.90;4.40;;;5.90;99.90;;;;;;4998105;28;20140;-63
2021/03/23 01:14:49;;;;;;;13.45;5.70;;;5.90;99.90;;;;;;4997396;28;20397;-64
2021/03/23 01:17:14;;;;;;;11.75;4.60;;;5.90;99.90;;;;;;4998174;28;20125;-64
2021/03/23 01:19:40;;;;;;;12.23;4.35;;;6.00;99.90;;;;;;4980201;28;20041;-64
2021/03/23 01:22:06;;;;;;;14.40;4.47;;;5.90;99.90;;;;;;4996971;28;20117;-64
2021/03/23 01:24:32;;;;;;;9.35;4.55;;;5.90;99.90;;;;;;4997427;28;20084;-64
2021/03/23 01:26:58;;;;;;;14.52;4.50;;;5.90;99.90;;;;;;4997089;28;20055;-64
2021/03/23 01:29:24;;;;;;;10.13;3.83;;;5.90;99.90;;;;;;4995191;28;20037;-64
2021/03/23 01:31:49;;;;;;;9.95;4.03;;;5.80;99.90;;;;;;4997460;28;20064;-64
2021/03/23 01:34:15;;;;;;;11.55;3.70;;;5.80;99.90;;;;;;4980148;28;20042;-64
2021/03/23 01:36:40;;;;;;;11.45;4.60;;;5.80;99.90;;;;;;4998262;28;20244;-64
2021/03/23 01:39:06;;;;;;;11.02;3.80;;;5.80;99.90;;;;;;4997793;28;20060;-64
2021/03/23 01:41:32;;;;;;;16.80;4.30;;;5.80;99.90;;;;;;4980837;28;20076;-64
2021/03/23 01:43:58;;;;;;;12.98;4.53;;;5.80;99.90;;;;;;4998105;28;20061;-64
2021/03/23 01:46:41;;;;;;;16.95;4.28;;;5.80;99.90;;;;;;4996533;28;20041;-64
2021/03/23 01:49:11;;;;;;;11.25;4.07;;;5.70;99.90;;;;;;4996397;28;20485;-64
2021/03/23 01:51:36;;;;;;;14.05;4.35;;;5.70;99.90;;;;;;4994137;28;20022;-64
2021/03/23 01:54:09;;;;;;;10.48;4.22;;;5.70;99.90;;;;;;4996742;28;20456;-64
2021/03/23 01:56:34;;;;;;;15.25;4.53;;;5.70;99.90;;;;;;4995926;28;20092;-64
2021/03/23 01:59:03;;;;;;;11.75;4.53;;;5.60;99.90;;;;;;4997764;28;20768;-64
2021/03/23 02:01:30;;;;;;;14.10;4.97;;;5.50;99.90;;;;;;4997977;28;20026;-63
2021/03/23 02:03:56;;;;;;;12.93;5.00;;;5.50;99.90;;;;;;4979578;28;20033;-63
2021/03/23 02:06:30;;;;;;;10.90;4.80;;;5.50;99.90;;;;;;4997384;28;20028;-63
2021/03/23 02:08:56;;;;;;;14.90;5.18;;;5.40;99.90;;;;;;4994683;28;20025;-64
2021/03/23 02:11:22;;;;;;;12.43;4.68;;;5.40;99.90;;;;;;4979762;28;20045;-64
2021/03/23 02:13:49;;;;;;;16.77;4.50;;;5.40;99.90;;;;;;4997398;28;20025;-64
2021/03/23 02:16:15;;;;;;;17.27;5.25;;;5.40;99.90;;;;;;4978988;28;20046;-64
2021/03/23 02:18:41;;;;;;;13.15;5.20;;;5.50;99.90;;;;;;4997283;28;20086;-64
2021/03/23 02:21:08;;;;;;;14.35;4.40;;;5.40;99.90;;;;;;4996741;28;20172;-65
2021/03/23 02:23:39;;;;;;;12.73;4.40;;;5.30;99.90;;;;;;4996037;28;20113;-65
2021/03/23 02:26:07;;;;;;;15.90;4.43;;;5.40;99.90;;;;;;4998761;28;20563;-65
2021/03/23 02:28:54;;;;;;;12.80;4.30;;;5.40;99.90;;;;;;4996976;28;20044;-64
2021/03/23 02:31:33;;;;;;;12.30;3.97;;;5.30;99.90;;;;;;4978240;28;20036;-63
2021/03/23 02:34:00;;;;;;;11.80;4.18;;;5.30;99.90;;;;;;4995003;28;20158;-64
2021/03/23 02:36:27;;;;;;;15.45;4.22;;;5.30;99.90;;;;;;4997164;28;20030;-65
2021/03/23 02:38:53;;;;;;;12.57;4.07;;;5.30;99.90;;;;;;4996251;28;20038;-65
2021/03/23 02:41:20;;;;;;;13.25;4.75;;;5.30;99.90;;;;;;4997335;28;20761;-64
2021/03/23 02:43:46;;;;;;;14.07;4.78;;;5.30;99.90;;;;;;4998193;28;20033;-63
2021/03/23 02:46:11;;;;;;;10.45;4.93;;;5.30;99.90;;;;;;4994361;28;20042;-63
2021/03/23 02:48:37;;;;;;;15.65;5.90;;;5.20;99.90;;;;;;4996229;28;20026;-63
2021/03/23 02:51:03;;;;;;;9.20;5.07;;;5.30;99.90;;;;;;4996546;28;20037;-63
2021/03/23 02:53:29;;;;;;;13.25;5.78;;;5.30;99.90;;;;;;4996324;28;20034;-64
2021/03/23 02:55:55;;;;;;;17.63;5.93;;;5.20;99.90;;;;;;4996069;28;20534;-64
2021/03/23 02:58:20;;;;;;;13.93;5.30;;;5.20;99.90;;;;;;4996196;28;20042;-64
2021/03/23 03:00:47;;;;;;;14.02;5.43;;;5.20;99.90;;;;;;4995657;28;20034;-64
2021/03/23 03:03:13;;;;;;;15.57;5.50;;;5.20;99.90;;;;;;4993080;28;20056;-64
2021/03/23 03:05:39;;;;;;;16.25;5.28;;;5.30;99.90;;;;;;4999364;28;20867;-63
2021/03/23 03:08:05;;;;;;;15.88;5.28;;;5.30;99.90;;;;;;4999644;28;20110;-64
2021/03/23 03:10:31;;;;;;;16.80;5.70;;;5.30;99.90;;;;;;5000096;28;20495;-64
2021/03/23 03:12:58;;;;;;;16.83;5.97;;;5.20;99.90;;;;;;4999739;28;20066;-64
2021/03/23 03:15:24;;;;;;;14.60;5.45;;;5.20;99.90;;;;;;4981246;28;20044;-63
2021/03/23 03:17:50;;;;;;;14.48;5.15;;;5.20;99.90;;;;;;4999420;28;20045;-63
2021/03/23 03:20:16;;;;;;;12.40;4.88;;;5.30;99.90;;;;;;5000684;28;20046;-65
2021/03/23 03:22:42;;;;;;;11.70;4.47;;;5.20;99.90;;;;;;4978942;28;20030;-64
2021/03/23 03:25:10;;;;;;;9.77;4.13;;;5.30;99.90;;;;;;4999734;28;20125;-63
2021/03/23 03:27:36;;;;;;;13.18;4.82;;;5.20;99.90;;;;;;4999016;28;20072;-64
2021/03/23 03:30:16;;;;;;;9.30;4.07;;;5.20;99.90;;;;;;4981543;28;20042;-63
2021/03/23 03:32:42;;;;;;;12.05;4.47;;;5.20;99.90;;;;;;4996401;28;20646;-63
2021/03/23 03:35:08;;;;;;;13.23;4.75;;;5.10;99.90;;;;;;4999209;28;20061;-64
2021/03/23 03:37:34;;;;;;;10.73;4.57;;;5.10;99.90;;;;;;4998494;28;20033;-63
2021/03/23 03:39:59;;;;;;;12.57;4.30;;;5.10;99.90;;;;;;5000085;28;20072;-63
2021/03/23 03:42:25;;;;;;;12.18;4.70;;;5.10;99.90;;;;;;5000222;28;20057;-63
2021/03/23 03:44:51;;;;;;;12.90;4.43;;;5.10;99.90;;;;;;4981615;28;20030;-64
2021/03/23 03:47:16;;;;;;;11.85;4.88;;;5.10;99.90;;;;;;4981561;28;20030;-66
2021/03/23 03:49:42;;;;;;;10.93;5.25;;;5.10;99.90;;;;;;4999187;28;20512;-66
2021/03/23 03:52:09;;;;;;;14.18;5.55;;;5.10;99.90;;;;;;4981866;28;20041;-66
2021/03/23 03:54:34;;;;;;;9.93;4.72;;;5.10;99.90;;;;;;4999099;28;20038;-66
2021/03/23 03:57:00;;;;;;;18.38;6.60;;;5.10;99.90;;;;;;4996875;28;20030;-67
2021/03/23 03:59:26;;;;;;;13.10;5.45;;;5.10;99.90;;;;;;4998424;28;20067;-66
2021/03/23 04:01:51;;;;;;;9.50;5.30;;;5.10;99.90;;;;;;4998971;28;20490;-66
2021/03/23 04:04:17;;;;;;;14.38;5.53;;;5.10;99.90;;;;;;4998629;28;20060;-67
2021/03/23 04:06:43;;;;;;;13.23;4.93;;;5.10;99.90;;;;;;4989269;28;20022;-66
2021/03/23 04:09:08;;;;;;;15.27;6.43;;;5.20;99.90;;;;;;4998282;28;20041;-66
2021/03/23 04:11:34;;;;;;;17.70;5.85;;;5.10;99.90;;;;;;4998544;28;20141;-66
2021/03/23 04:14:00;;;;;;;17.73;6.20;;;5.10;99.90;;;;;;4978748;28;20026;-64
2021/03/23 04:16:26;;;;;;;16.35;5.85;;;5.10;99.90;;;;;;4998497;28;20092;-64
2021/03/23 04:18:51;;;;;;;16.02;6.53;;;5.10;99.90;;;;;;4998110;28;20863;-64
2021/03/23 04:21:17;;;;;;;21.85;6.63;;;5.10;99.90;;;;;;4980578;28;20064;-64
2021/03/23 04:23:43;;;;;;;16.63;5.97;;;5.00;99.90;;;;;;4998650;28;20026;-64
2021/03/23 04:26:13;;;;;;;12.80;6.00;;;5.10;99.90;;;;;;4987286;28;20088;-64
2021/03/23 04:28:39;;;;;;;19.63;6.18;;;5.10;99.90;;;;;;4981090;28;20047;-66
2021/03/23 04:31:06;;;;;;;16.00;5.88;;;5.10;99.90;;;;;;4999942;28;20045;-64
2021/03/23 04:33:33;;;;;;;20.00;6.07;;;5.10;99.90;;;;;;5001253;28;20041;-67
2021/03/23 04:36:06;;;;;;;14.98;6.03;;;5.10;99.90;;;;;;4981638;28;20759;-67
2021/03/23 04:38:36;;;;;;;14.73;5.97;;;5.10;99.90;;;;;;4995808;28;20041;-66
2021/03/23 04:41:09;;;;;;;16.33;5.93;;;5.20;99.90;;;;;;4998644;28;20669;-66
2021/03/23 04:43:38;;;;;;;18.77;6.40;;;5.20;99.90;;;;;;4997690;28;20034;-64
2021/03/23 04:46:04;;;;;;;12.80;5.50;;;5.10;99.90;;;;;;4997548;28;20038;-64
2021/03/23 04:48:30;;;;;;;20.50;6.47;;;5.10;99.90;;;;;;4983790;28;20492;-64
2021/03/23 04:50:57;;;;;;;17.60;6.45;;;5.10;99.90;;;;;;4979569;28;20061;-64
2021/03/23 04:53:29;;;;;;;14.85;5.93;;;5.10;99.90;;;;;;4995164;28;20699;-64
2021/03/23 04:55:55;;;;;;;19.00;6.53;;;5.10;99.90;;;;;;4997547;28;20727;-64
2021/03/23 04:58:22;;;;;;;14.57;5.80;;;5.10;99.90;;;;;;4986929;28;20044;-64
2021/03/23 05:00:47;;;;;;;14.50;5.90;;;5.10;99.90;;;;;;4997973;28;20033;-64
2021/03/23 05:03:19;;;;;;;14.27;6.40;;;5.10;99.90;;;;;;4997422;28;20038;-64
2021/03/23 05:05:45;;;;;;;20.85;6.93;;;5.00;99.90;;;;;;4980157;28;20061;-64
2021/03/23 05:08:11;;;;;;;22.63;6.63;;;5.00;99.90;;;;;;4998735;28;20117;-64
2021/03/23 05:10:37;;;;;;;14.05;6.30;;;5.00;99.90;;;;;;4999010;28;20022;-64
2021/03/23 05:13:04;;;;;;;17.27;6.68;;;5.10;99.90;;;;;;4998862;28;20044;-64
2021/03/23 05:15:31;;;;;;;14.32;5.68;;;5.10;99.90;;;;;;4998851;28;20084;-64
2021/03/23 05:17:56;;;;;;;24.83;6.20;;;5.10;99.90;;;;;;4990201;28;20041;-66
2021/03/23 05:20:22;;;;;;;13.57;6.18;;;5.20;99.90;;;;;;4998312;28;20034;-67
2021/03/23 05:22:49;;;;;;;19.48;5.65;;;5.20;99.90;;;;;;4999217;28;20375;-66
2021/03/23 05:25:15;;;;;;;13.60;5.75;;;5.20;99.90;;;;;;4985660;28;20069;-67
2021/03/23 05:27:41;;;;;;;14.35;5.80;;;5.20;99.90;;;;;;4997623;28;20113;-64
2021/03/23 05:30:08;;;;;;;12.75;5.15;;;5.20;99.90;;;;;;4997881;28;20037;-64
2021/03/23 05:32:34;;;;;;;9.02;4.38;;;5.10;99.90;;;;;;4997977;28;20788;-64
2021/03/23 05:35:00;;;;;;;10.57;4.88;;;5.10;99.90;;;;;;4979423;28;20539;-64
2021/03/23 05:37:25;;;;;;;10.35;4.07;;;5.10;99.90;;;;;;4983200;28;20041;-64
2021/03/23 05:39:51;;;;;;;8.40;4.15;;;5.10;99.90;;;;;;4997316;28;20053;-64
2021/03/23 05:42:40;;;;;;;9.10;4.45;;;5.10;99.90;;;;;;4997030;28;20521;-66
2021/03/23 05:45:08;;;;;;;11.35;4.15;;;5.10;99.90;;;;;;4995901;28;20084;-66
2021/03/23 05:47:37;;;;;;;9.75;3.92;;;5.10;99.90;;;;;;4997494;28;20036;-66
2021/03/23 05:50:29;;;;;;;11.43;4.35;;;5.10;99.90;;;;;;4997434;28;20119;-66
2021/03/23 05:53:06;;;;;;;8.82;3.63;;;5.10;99.90;;;;;;4994619;28;20105;-66
2021/03/23 05:55:40;;;;;;;7.30;3.75;;;5.10;99.90;;;;;;4993945;28;20045;-66
2021/03/23 05:58:21;;;;;;;11.73;4.15;;;5.10;99.90;;;;;;4997598;28;20049;-64
2021/03/23 06:01:15;;;;;;;6.88;3.47;;;5.10;99.90;;;;;;4979296;28;20037;-64
2021/03/23 06:04:05;;;;;;;8.73;3.78;;;5.10;99.90;;;;;;4960996;28;20109;-64
2021/03/23 06:06:44;;;;;;;7.00;4.05;;;5.10;99.90;;;;;;4994482;28;20038;-64
2021/03/23 06:09:12;;;;;;;10.40;4.25;;;5.10;99.90;;;;;;4996594;28;20382;-64
2021/03/23 06:11:45;;;;;;;8.50;4.10;;;5.20;99.90;;;;;;4996389;28;20215;-64
2021/03/23 06:14:22;;;;;;;9.55;4.53;;;5.20;99.90;;;;;;4997105;28;20232;-64
2021/03/23 06:17:12;;;;;;;7.57;3.80;;;5.30;99.90;;;;;;4996929;28;20864;-66
2021/03/23 06:20:01;;;;;;;8.05;4.25;;;5.30;99.90;;;;;;4994404;28;20053;-66
2021/03/23 06:22:54;;;;;;;9.57;4.60;;;5.30;99.90;;;;;;4994331;28;20030;-64
2021/03/23 06:25:28;;;;;;;9.80;4.50;;;5.30;99.90;;;;;;4949784;28;20403;-64
2021/03/23 06:28:32;;;;;;;10.73;4.83;;;5.30;99.90;;;;;;4981246;28;20130;-64
2021/03/23 06:31:13;;;;;;;7.85;4.20;;;5.30;99.90;;;;;;4995570;28;20034;-66
2021/03/23 06:33:39;;;;;;;10.35;4.35;;;5.40;99.90;;;;;;4993736;28;20049;-66
2021/03/23 06:36:17;;;;;;;7.50;4.28;;;5.40;99.90;;;;;;4978820;28;20038;-64
2021/03/23 06:38:43;;;;;;;11.85;4.28;;;5.40;99.90;;;;;;4992066;28;20053;-64
2021/03/23 06:41:09;;;;;;;11.00;4.70;;;5.50;99.90;;;;;;4995166;28;20038;-64
2021/03/23 06:43:37;;;;;;;10.48;5.13;;;5.50;99.90;;;;;;4996147;28;20061;-64
2021/03/23 06:46:24;;;;;;;13.68;5.57;;;5.50;99.90;;;;;;4981803;28;20718;-66
2021/03/23 06:49:03;;;;;;;13.43;5.22;;;5.50;99.90;;;;;;4986526;28;20038;-66
2021/03/23 06:51:29;;;;;;;9.90;5.20;;;5.70;99.90;;;;;;4996094;28;20029;-64
2021/03/23 06:54:15;;;;;;;9.02;4.60;;;5.70;99.90;;;;;;4995790;28;20486;-64
2021/03/23 06:56:41;;;;;;;8.40;4.78;;;5.70;99.90;;;;;;4991778;28;20052;-64
2021/03/23 06:59:19;;;;;;;9.05;4.80;;;5.70;99.90;;;;;;4981507;28;20133;-64
2021/03/23 07:01:45;;;;;;;11.35;5.13;;;5.80;99.90;;;;;;4992910;28;20034;-63
2021/03/23 07:04:29;;;;;;;8.52;4.55;;;5.70;99.90;;;;;;4995466;28;20037;-63
2021/03/23 07:07:18;;;;;;;10.82;5.07;;;5.70;99.90;;;;;;4993637;28;20033;-70
2021/03/23 07:09:52;;;;;;;13.57;5.70;;;5.70;99.90;;;;;;4965646;28;20045;-71
2021/03/23 07:12:34;;;;;;;8.90;4.78;;;5.80;99.90;;;;;;4995162;28;20134;-71
2021/03/23 07:15:10;;;;;;;9.50;5.00;;;5.90;99.90;;;;;;4995005;28;20893;-64
2021/03/23 07:17:45;;;;;;;7.22;4.07;;;6.00;99.90;;;;;;4992403;28;20143;-65
2021/03/23 07:20:29;;;;;;;7.88;4.70;;;5.90;99.90;;;;;;4995698;28;20037;-66
2021/03/23 07:22:55;;;;;;;9.02;4.95;;;5.90;99.90;;;;;;4996033;28;20038;-66
2021/03/23 07:25:38;;;;;;;9.15;4.78;;;6.00;99.90;;;;;;4995717;28;20494;-66
2021/03/23 07:28:10;;;;;;;11.75;4.93;;;6.10;99.90;;;;;;4994982;28;20034;-66
2021/03/23 07:30:38;;;;;;;9.88;5.50;;;6.20;99.90;;;;;;4995917;28;20840;-66
2021/03/23 07:33:12;;;;;;;8.25;4.75;;;6.10;99.90;;;;;;4995525;28;20044;-66
2021/03/23 07:35:40;;;;;;;8.68;4.30;;;6.20;99.90;;;;;;4995403;28;20033;-66
2021/03/23 07:38:28;;;;;;;8.02;4.22;;;6.20;99.90;;;;;;4995178;28;20049;-67
2021/03/23 07:40:57;;;;;;;9.90;4.18;;;6.30;99.90;;;;;;4992236;28;20132;-67
2021/03/23 07:43:47;;;;;;;7.85;3.97;;;6.40;99.90;;;;;;4991958;28;20030;-67
2021/03/23 07:46:18;;;;;;;7.15;4.38;;;6.40;99.90;;;;;;4992672;28;20418;-67
2021/03/23 07:48:53;;;;;;;7.93;3.92;;;6.40;99.90;;;;;;4994778;28;20085;-66
2021/03/23 07:51:36;;;;;;;6.38;3.53;;;6.50;99.90;;;;;;4980580;28;20850;-67
2021/03/23 07:54:19;;;;;;;6.47;3.72;;;6.60;99.90;;;;;;4997428;28;20120;-65
2021/03/23 07:57:00;;;;;;;6.38;3.58;;;6.70;99.90;;;;;;4998061;28;20033;-66
2021/03/23 07:59:50;;;;;;;5.38;3.35;;;6.80;99.90;;;;;;4999043;28;20046;-64
2021/03/23 08:02:48;;;;;;;9.85;3.72;;;6.70;99.90;;;;;;4997029;28;20037;-64
2021/03/23 08:05:38;;;;;;;6.15;3.72;;;6.70;99.90;;;;;;4991957;28;20104;-64
2021/03/23 08:08:16;;;;;;;4.82;3.00;;;6.70;99.90;;;;;;4996016;28;20621;-64
2021/03/23 08:11:02;;;;;;;6.15;3.28;;;6.80;99.90;;;;;;4996513;28;20077;-64
2021/03/23 08:14:04;;;;;;;5.70;3.22;;;6.90;99.90;;;;;;4998668;28;20045;-64
2021/03/23 08:16:55;;;;;;;5.47;3.10;;;6.90;99.90;;;;;;4994874;28;20034;-64
2021/03/23 08:19:32;;;;;;;4.32;2.85;;;6.70;99.90;;;;;;4996312;28;20045;-64
2021/03/23 08:22:36;;;;;;;5.80;3.15;;;6.70;99.90;;;;;;4998139;28;20506;-63
2021/03/23 08:25:18;;;;;;;6.35;3.03;;;6.70;99.90;;;;;;4996985;28;20129;-66
2021/03/23 08:28:13;;;;;;;4.57;3.00;;;6.80;99.90;;;;;;4998362;28;20567;-64
2021/03/23 08:31:17;;;;;;;6.30;3.03;;;6.80;99.90;;;;;;4995293;28;20038;-66
2021/03/23 08:33:49;;;;;;;7.25;3.42;;;6.80;99.90;;;;;;4996008;28;20493;-66
2021/03/23 08:36:43;;;;;;;6.05;3.15;;;7.00;99.90;;;;;;4999170;28;20478;-64
2021/03/23 08:39:31;;;;;;;6.10;3.00;;;7.20;99.90;;;;;;4998702;28;20820;-66
2021/03/23 08:42:11;;;;;;;10.77;5.47;;;7.40;99.90;;;;;;4995262;28;20042;-66
2021/03/23 08:44:55;;;;;;;7.93;3.17;;;7.40;99.90;;;;;;4998577;28;20066;-65
2021/03/23 08:47:42;;;;;;;4.30;2.55;;;7.50;99.90;;;;;;4976975;28;20072;-66
2021/03/23 08:50:34;;;;;;;4.43;2.97;;;7.50;99.90;;;;;;4996574;28;20663;-66
2021/03/23 08:53:04;;;;;;;5.25;2.72;;;7.70;99.90;;;;;;4997453;28;20117;-66
2021/03/23 08:55:30;;;;;;;6.55;2.90;;;7.60;99.90;;;;;;4994326;28;20112;-66
2021/03/23 08:58:04;;;;;;;5.00;2.75;;;7.60;99.90;;;;;;4998993;28;20132;-64
2021/03/23 09:00:38;;;;;;;5.05;2.88;;;7.70;99.90;;;;;;4994759;28;20041;-64
2021/03/23 09:03:07;;;;;;;7.18;3.65;;;7.80;99.90;;;;;;4988220;28;20029;-64
2021/03/23 09:05:50;;;;;;;4.97;2.90;;;7.90;99.90;;;;;;4981121;28;20547;-64
2021/03/23 09:08:22;;;;;;;8.23;2.90;;;8.00;99.90;;;;;;4995991;28;20037;-64
2021/03/23 09:11:00;;;;;;;4.15;2.72;;;8.20;99.90;;;;;;4998202;28;20040;-64
2021/03/23 09:13:35;;;;;;;4.30;2.67;;;8.10;99.90;;;;;;4998493;28;20038;-64
2021/03/23 09:16:04;;;;;;;5.37;2.93;;;8.10;99.90;;;;;;4998414;28;20029;-64
2021/03/23 09:18:34;;;;;;;6.30;2.78;;;8.00;99.90;;;;;;4997736;28;20601;-64
2021/03/23 09:21:10;;;;;;;4.93;2.67;;;8.20;99.90;;;;;;4998703;28;20050;-64
2021/03/23 09:23:42;;;;;;;5.40;3.33;;;8.30;99.90;;;;;;4995059;28;20029;-63
2021/03/23 09:26:30;;;;;;;4.68;2.65;;;8.30;99.90;;;;;;4980069;28;20113;-63
2021/03/23 09:29:17;;;;;;;6.10;2.83;;;8.30;99.90;;;;;;4997281;28;20030;-64
2021/03/23 09:31:49;;;;;;;4.53;2.85;;;8.40;99.90;;;;;;4993823;28;20737;-64
2021/03/23 09:34:52;;;;;;;4.18;2.40;;;8.50;99.90;;;;;;4997695;28;20052;-64
2021/03/23 09:37:40;;;;;;;4.95;2.67;;;8.50;99.90;;;;;;4998151;28;20044;-63
2021/03/23 09:40:20;;;;;;;4.43;2.72;;;8.50;99.90;;;;;;4980714;28;20958;-64
2021/03/23 09:42:47;;;;;;;5.90;2.78;;;8.60;99.90;;;;;;5000315;28;20029;-63
2021/03/23 09:45:13;;;;;;;3.95;2.75;;;8.60;99.90;;;;;;4998423;28;20030;-65
2021/03/23 09:47:55;;;;;;;6.20;2.75;;;8.60;99.90;;;;;;4998251;28;20080;-64
2021/03/23 09:50:26;;;;;;;4.28;2.58;;;8.60;99.90;;;;;;4977167;28;20148;-63
2021/03/23 09:53:00;;;;;;;7.18;2.63;;;8.60;99.90;;;;;;4997826;28;20073;-66
2021/03/23 09:55:26;;;;;;;6.28;3.03;;;8.80;99.90;;;;;;4997548;28;20764;-65
2021/03/23 09:57:55;;;;;;;3.05;2.25;;;8.70;99.90;;;;;;4998243;28;20531;-63
2021/03/23 10:00:26;;;;;;;5.03;2.45;;;8.70;99.90;;;;;;4995932;28;20026;-63
2021/03/23 10:02:52;;;;;;;4.50;2.00;;;8.70;99.90;;;;;;4997823;28;20038;-65
2021/03/23 10:05:26;;;;;;;5.05;2.20;;;8.80;99.90;;;;;;4998160;28;20049;-65
2021/03/23 10:08:08;;;;;;;3.70;2.03;;;9.00;99.90;;;;;;4997785;28;20103;-65
2021/03/23 10:10:34;;;;;;;5.00;2.30;;;9.20;99.90;;;;;;4997886;28;20030;-65
2021/03/23 10:13:24;;;;;;;5.40;2.03;;;9.20;99.90;;;;;;4996549;28;20127;-65
2021/03/23 10:15:49;;;;;;;4.30;2.10;;;9.40;99.90;;;;;;4995862;28;20049;-65
2021/03/23 10:18:22;;;;;;;4.57;1.88;;;9.50;99.90;;;;;;4998610;28;20156;-63
2021/03/23 10:20:57;;;;;;;3.50;1.88;;;9.40;99.90;;;;;;4998931;28;20087;-70
2021/03/23 10:23:24;;;;;;;4.13;2.10;;;9.50;99.90;;;;;;4998674;28;20049;-69
2021/03/23 10:25:50;;;;;;;2.97;1.60;;;9.60;99.90;;;;;;4981025;28;20061;-64
2021/03/23 10:28:31;;;;;;;5.30;1.30;;;9.60;99.90;;;;;;4998172;28;20125;-65
2021/03/23 10:30:59;;;;;;;2.50;1.42;;;9.80;99.90;;;;;;4998210;28;20041;-65
2021/03/23 10:33:30;;;;;;;6.55;2.38;;;9.80;99.90;;;;;;4997885;28;20034;-65
2021/03/23 10:36:01;;;;;;;4.75;1.30;;;9.70;99.90;;;;;;4998081;28;20050;-65
2021/03/23 10:38:27;;;;;;;1.88;1.13;;;9.50;99.90;;;;;;4997674;28;20042;-63
2021/03/23 10:40:58;;;;;;;5.55;1.30;;;9.40;99.90;;;;;;4998161;28;20037;-63
2021/03/23 10:43:41;;;;;;;5.82;1.33;;;9.30;99.90;;;;;;4995242;28;20038;-65
2021/03/23 10:46:40;;;;;;;2.65;1.30;;;9.30;99.90;;;;;;4995455;28;20041;-65
2021/03/23 10:49:27;;;;;;;4.78;1.30;;;9.10;99.90;;;;;;4997428;28;20545;-65
2021/03/23 10:52:25;;;;;;;1.80;1.42;;;9.00;99.90;;;;;;4998942;28;20978;-65
2021/03/23 10:55:10;;;;;;;3.38;2.00;;;8.90;99.90;;;;;;4995856;28;20865;-65
2021/03/23 10:57:39;;;;;;;3.47;1.38;;;8.90;99.90;;;;;;4996700;28;20030;-65
2021/03/23 11:00:16;;;;;;;5.55;1.77;;;8.90;99.90;;;;;;4997422;28;20486;-65
2021/03/23 11:02:42;;;;;;;1.42;1.13;;;8.90;99.90;;;;;;4997735;28;20045;-65
2021/03/23 11:05:15;;;;;;;6.68;1.92;;;9.20;99.90;;;;;;4979260;28;20034;-64
2021/03/23 11:07:55;;;;;;;6.70;2.28;;;9.50;99.90;;;;;;4983052;28;20038;-65
2021/03/23 11:10:23;;;;;;;6.43;2.20;;;9.70;99.90;;;;;;4997456;28;20041;-65
2021/03/23 11:12:49;;;;;;;4.95;1.90;;;9.80;99.90;;;;;;4997835;28;20038;-63
2021/03/23 11:15:16;;;;;;;7.13;2.28;;;9.60;99.90;;;;;;4996522;28;20068;-63
2021/03/23 11:17:49;;;;;;;8.15;2.17;;;9.30;99.90;;;;;;4997436;28;20034;-63
2021/03/23 11:20:38;;;;;;;4.45;1.85;;;9.10;99.90;;;;;;4993671;28;20827;-63
2021/03/23 11:23:47;;;;;;;6.88;2.40;;;8.90;99.90;;;;;;4996761;28;20030;-63
2021/03/23 11:26:25;;;;;;;9.98;2.42;;;8.80;99.90;;;;;;4999178;28;20048;-63
2021/03/23 11:28:53;;;;;;;10.85;2.53;;;8.60;99.90;;;;;;5003898;28;20038;-62
2021/03/23 11:31:21;;;;;;;6.85;3.17;;;8.40;99.90;;;;;;5000462;28;20042;-63
2021/03/23 11:33:47;;;;;;;5.35;2.90;;;8.50;99.90;;;;;;5000962;28;20030;-65
2021/03/23 11:36:13;;;;;;;6.47;2.88;;;8.60;99.90;;;;;;5000615;28;20040;-64
2021/03/23 11:38:40;;;;;;;7.32;3.00;;;8.60;99.90;;;;;;5000441;28;20029;-64
2021/03/23 11:41:11;;;;;;;7.90;2.75;;;8.70;99.90;;;;;;5000647;28;20044;-64
2021/03/23 11:43:37;;;;;;;8.80;3.47;;;8.60;99.90;;;;;;4997003;28;20034;-65
2021/03/23 11:46:23;;;;;;;17.25;5.07;;;8.60;99.90;;;;;;5001453;28;20459;-64
2021/03/23 11:48:54;;;;;;;5.65;3.00;;;8.70;99.90;;;;;;4999909;28;20544;-64
2021/03/23 11:51:23;;;;;;;5.72;2.60;;;8.70;99.90;;;;;;4998462;28;20049;-64
2021/03/23 11:53:52;;;;;;;6.18;3.20;;;8.80;99.90;;;;;;5000558;28;20061;-64
2021/03/23 11:56:18;;;;;;;6.88;2.50;;;8.90;99.90;;;;;;4995326;28;20044;-63
2021/03/23 11:58:44;;;;;;;6.90;2.90;;;9.20;99.90;;;;;;4982916;28;20041;-63
2021/03/23 12:01:10;;;;;;;7.13;3.10;;;9.30;99.90;;;;;;4986247;28;20037;-63
2021/03/23 12:03:36;;;;;;;8.77;2.80;;;9.20;99.90;;;;;;5000426;28;20112;-63
2021/03/23 12:06:02;;;;;;;5.03;3.10;;;9.20;99.90;;;;;;4997301;28;20099;-63
2021/03/23 12:08:31;;;;;;;6.15;2.58;;;9.10;99.90;;;;;;4981894;28;20056;-63
2021/03/23 12:11:38;;;;;;;11.45;3.33;;;9.10;99.90;;;;;;4999183;28;20120;-63
2021/03/23 12:14:28;;;;;;;9.25;2.70;;;9.30;99.90;;;;;;4998047;28;20133;-63
2021/03/23 12:16:57;;;;;;;7.57;2.88;;;9.40;99.90;;;;;;4979640;28;20056;-64
2021/03/23 12:19:24;;;;;;;10.52;3.13;;;9.50;99.90;;;;;;4986493;28;20056;-64
2021/03/23 12:21:51;;;;;;;12.45;4.45;;;9.50;99.90;;;;;;4997574;28;20069;-63
2021/03/23 12:24:20;;;;;;;11.88;3.03;;;9.80;99.90;;;;;;4999752;28;20042;-69
2021/03/23 12:26:46;;;;;;;8.52;2.67;;;9.70;99.90;;;;;;4999584;28;20037;-63
2021/03/23 12:29:12;;;;;;;8.00;3.15;;;9.60;99.90;;;;;;4999402;28;20045;-64
2021/03/23 12:31:38;;;;;;;7.25;2.80;;;9.90;99.90;;;;;;4996446;28;20033;-63
2021/03/23 12:34:03;;;;;;;6.55;3.17;;;10.00;99.90;;;;;;4980822;28;20061;-63
2021/03/23 12:36:29;;;;;;;9.45;3.03;;;10.30;99.90;;;;;;4981094;28;20046;-63
2021/03/23 12:38:55;;;;;;;8.98;2.85;;;10.30;99.90;;;;;;4998850;28;20026;-63
2021/03/23 12:41:32;;;;;;;6.57;2.65;;;10.30;99.90;;;;;;4999276;28;20489;-63
2021/03/23 12:43:58;;;;;;;7.85;2.80;;;10.20;99.90;;;;;;4998877;28;20030;-63
2021/03/23 12:46:24;;;;;;;11.65;3.40;;;9.80;99.90;;;;;;4999255;28;20557;-64
2021/03/23 12:48:50;;;;;;;12.32;3.08;;;9.70;99.90;;;;;;4998611;28;20776;-63
2021/03/23 12:51:25;;;;;;;9.43;3.00;;;9.50;99.90;;;;;;4997953;28;20145;-63
2021/03/23 12:53:52;;;;;;;9.25;3.13;;;9.20;99.90;;;;;;4978078;28;20829;-64
2021/03/23 12:56:20;;;;;;;10.63;3.00;;;9.00;99.90;;;;;;4997917;28;20056;-63
2021/03/23 12:58:47;;;;;;;7.80;3.40;;;8.90;99.90;;;;;;4987985;28;20412;-63
2021/03/23 13:01:14;;;;;;;9.43;3.10;;;8.90;99.90;;;;;;4990406;28;20512;-64
2021/03/23 13:03:41;;;;;;;10.02;3.47;;;8.90;99.90;;;;;;4998976;28;20127;-63
2021/03/23 13:06:11;;;;;;;6.20;3.38;;;8.80;99.90;;;;;;4978607;28;20042;-63
2021/03/23 13:08:37;;;;;;;13.52;4.03;;;8.80;99.90;;;;;;4998798;28;20124;-64
2021/03/23 13:11:07;;;;;;;8.45;4.20;;;8.80;99.90;;;;;;4999755;28;20041;-64
2021/03/23 13:13:45;;;;;;;10.70;4.25;;;8.70;99.90;;;;;;4998821;28;20045;-64
2021/03/23 13:16:12;;;;;;;15.68;6.20;;;8.50;99.90;;;;;;4998957;28;20665;-65
2021/03/23 13:18:38;;;;;;;15.10;5.47;;;8.50;99.90;;;;;;4998902;28;20121;-64